Time;durP1;ratioP1;P1;durP2;ratioP2;P2;SDS_P1;SDS_P2;PMS_P1;PMS_P2;Temp;Humidity;BMP_temperature;BMP_pressure;BME280_temperature;BME280_humidity;BME280_pressure;Samples;Min_cycle;Max_cycle;Signal;HPM_P1;HPM_P2
2023/03/12 00:00:29;;;;;;;4.47;2.30;;;;;;;4.92;45.07;94016.81;4969011;28;20192;-66
2023/03/12 00:02:55;;;;;;;6.53;2.37;;;;;;;4.62;45.77;94029.09;4969664;28;20198;-65
2023/03/12 00:05:21;;;;;;;8.03;2.77;;;;;;;4.54;45.75;94029.78;4984417;28;20200;-65
2023/03/12 00:07:47;;;;;;;7.37;2.80;;;;;;;4.76;45.02;94043.47;4964467;28;20195;-64
2023/03/12 00:10:13;;;;;;;5.40;2.70;;;;;;;4.42;45.83;94043.94;4969915;28;20200;-64
2023/03/12 00:12:39;;;;;;;4.27;2.83;;;;;;;4.34;46.06;94065.44;4959585;28;20246;-64
2023/03/12 00:15:06;;;;;;;5.50;2.87;;;;;;;4.62;45.58;94049.91;4969145;28;20195;-64
2023/03/12 00:17:31;;;;;;;7.73;3.10;;;;;;;4.53;45.66;94046.38;4967436;28;20708;-63
2023/03/12 00:19:57;;;;;;;5.93;3.73;;;;;;;4.48;45.57;94060.75;4969833;28;20295;-64
2023/03/12 00:22:24;;;;;;;3.97;3.47;;;;;;;4.41;46.04;94058.72;4968354;28;20287;-63
2023/03/12 00:24:51;;;;;;;5.97;3.33;;;;;;;4.48;46.30;94081.59;4969680;28;20207;-64
2023/03/12 00:27:17;;;;;;;5.67;3.57;;;;;;;4.37;46.48;94072.16;4967072;28;20204;-64
2023/03/12 00:29:43;;;;;;;4.17;3.77;;;;;;;4.51;45.58;94070.91;4967705;28;20212;-63
2023/03/12 00:32:08;;;;;;;3.80;3.50;;;;;;;4.26;46.69;94093.09;4968212;28;20581;-63
2023/03/12 00:34:34;;;;;;;8.37;4.23;;;;;;;4.38;46.17;94078.97;4967793;28;20196;-63
2023/03/12 00:36:59;;;;;;;7.03;4.33;;;;;;;4.19;46.22;94078.00;4964356;28;20197;-63
2023/03/12 00:39:24;;;;;;;3.73;3.40;;;;;;;4.38;46.48;94081.59;4967627;28;20317;-64
2023/03/12 00:41:50;;;;;;;7.83;4.03;;;;;;;4.32;46.35;94087.34;4969391;28;20207;-63
2023/03/12 00:44:15;;;;;;;5.73;3.90;;;;;;;4.37;46.30;94075.56;4969287;28;20195;-63
2023/03/12 00:46:41;;;;;;;4.63;3.93;;;;;;;4.20;45.65;94097.88;4967810;28;20208;-64
2023/03/12 00:49:06;;;;;;;5.27;4.00;;;;;;;4.30;45.78;94069.25;4968360;28;20203;-64
2023/03/12 00:51:32;;;;;;;4.73;3.90;;;;;;;4.11;46.81;94069.25;4966898;28;20216;-63
2023/03/12 00:53:57;;;;;;;3.77;3.47;;;;;;;4.29;46.43;94088.44;4969673;28;20274;-64
2023/03/12 00:56:23;;;;;;;5.67;3.73;;;;;;;4.35;45.80;94074.06;4964597;28;20350;-65
2023/03/12 00:58:48;;;;;;;5.83;3.43;;;;;;;4.36;46.01;94078.31;4968333;28;20200;-65
2023/03/12 01:01:14;;;;;;;5.10;3.90;;;;;;;4.39;45.75;94078.03;4969826;28;20278;-65
2023/03/12 01:03:39;;;;;;;4.70;3.50;;;;;;;4.13;46.68;94070.75;4971856;28;20287;-66
2023/03/12 01:06:06;;;;;;;4.77;3.60;;;;;;;4.14;46.23;94076.78;4972990;28;20217;-64
2023/03/12 01:08:32;;;;;;;3.93;3.53;;;;;;;3.86;47.55;94086.22;4972546;28;20275;-64
2023/03/12 01:10:57;;;;;;;4.67;3.77;;;;;;;4.26;46.60;94093.09;4973517;28;20311;-69
2023/03/12 01:13:23;;;;;;;6.87;3.83;;;;;;;4.24;46.51;94090.63;4972617;28;20204;-64
2023/03/12 01:15:48;;;;;;;7.23;3.80;;;;;;;4.09;46.64;94092.81;4970553;28;20219;-64
2023/03/12 01:18:13;;;;;;;6.30;3.40;;;;;;;4.08;47.38;94111.16;4971970;28;20232;-64
2023/03/12 01:20:40;;;;;;;5.27;3.47;;;;;;;3.91;47.41;94104.84;4971988;28;20188;-64
2023/03/12 01:23:06;;;;;;;4.73;3.70;;;;;;;3.82;47.89;94103.84;4972946;28;20192;-64
2023/03/12 01:25:32;;;;;;;4.43;3.10;;;;;;;3.75;48.35;94102.75;4972033;28;20200;-64
2023/03/12 01:27:58;;;;;;;5.20;3.50;;;;;;;3.87;48.42;94101.66;4972014;28;20233;-64
2023/03/12 01:30:24;;;;;;;3.30;3.10;;;;;;;4.12;47.93;94109.94;4971945;28;20220;-65
2023/03/12 01:32:51;;;;;;;4.53;3.27;;;;;;;4.15;47.27;94102.69;4972898;28;20215;-65
2023/03/12 01:35:16;;;;;;;6.20;3.50;;;;;;;4.10;47.84;94104.84;4965632;28;20200;-64
2023/03/12 01:37:42;;;;;;;3.57;3.27;;;;;;;4.15;47.62;94104.47;4971453;28;20196;-65
2023/03/12 01:40:14;;;;;;;4.03;3.63;;;;;;;4.07;47.64;94099.09;4971544;28;20203;-65
2023/03/12 01:42:39;;;;;;;3.80;3.50;;;;;;;3.84;48.24;94094.13;4972327;28;20299;-65
2023/03/12 01:45:05;;;;;;;4.00;3.70;;;;;;;3.84;48.15;94101.94;4970978;28;20239;-65
2023/03/12 01:47:31;;;;;;;4.80;3.70;;;;;;;3.91;47.66;94103.03;4970007;28;20283;-64
2023/03/12 01:49:58;;;;;;;4.17;3.80;;;;;;;3.66;48.22;94101.75;4967905;28;20331;-64
2023/03/12 01:52:28;;;;;;;4.07;3.70;;;;;;;3.47;48.55;94102.50;4969991;28;20283;-64
2023/03/12 01:55:02;;;;;;;4.03;3.23;;;;;;;3.44;49.23;94125.34;4970031;28;20188;-64
2023/03/12 01:57:40;;;;;;;4.30;3.87;;;;;;;3.60;47.61;94096.25;4970195;28;20215;-64
2023/03/12 02:00:20;;;;;;;5.37;3.40;;;;;;;3.40;48.23;94098.78;4972167;28;20196;-64
2023/03/12 02:02:47;;;;;;;6.77;3.77;;;;;;;3.44;48.71;94104.53;4968011;28;20240;-64
2023/03/12 02:05:12;;;;;;;3.77;3.47;;;;;;;3.70;48.52;94108.31;4969914;28;20192;-64
2023/03/12 02:07:38;;;;;;;4.17;3.77;;;;;;;3.40;48.34;94100.56;4972867;28;20196;-65
2023/03/12 02:10:04;;;;;;;3.83;3.53;;;;;;;3.42;49.00;94098.66;4971238;28;20220;-64
2023/03/12 02:12:30;;;;;;;3.70;3.50;;;;;;;3.83;47.73;94102.91;4968367;28;20654;-65
2023/03/12 02:14:56;;;;;;;3.83;3.23;;;;;;;3.74;47.72;94104.53;4971004;28;20200;-68
2023/03/12 02:17:22;;;;;;;3.40;3.10;;;;;;;3.71;48.08;94103.94;4968380;28;20232;-68
2023/03/12 02:20:15;;;;;;;3.43;3.00;;;;;;;3.78;47.54;94110.28;4967517;28;20549;-68
2023/03/12 02:22:47;;;;;;;5.53;3.10;;;;;;;3.92;46.65;94106.47;4967635;28;20271;-67
2023/03/12 02:25:48;;;;;;;3.97;3.60;;;;;;;3.89;46.60;94117.97;4969178;28;20201;-67
2023/03/12 02:28:17;;;;;;;3.93;3.40;;;;;;;3.69;47.57;94124.91;4957745;28;20231;-68
2023/03/12 02:30:47;;;;;;;4.27;3.10;;;;;;;3.59;47.80;94116.22;4956013;28;20255;-67
2023/03/12 02:33:16;;;;;;;3.27;2.97;;;;;;;3.35;48.14;94126.94;4952711;28;20259;-67
2023/03/12 02:35:44;;;;;;;5.90;3.13;;;;;;;3.49;48.08;94116.19;4954047;28;20197;-67
2023/03/12 02:38:31;;;;;;;3.40;3.10;;;;;;;3.62;47.35;94118.56;4953586;28;20196;-67
2023/03/12 02:41:00;;;;;;;3.40;3.10;;;;;;;3.56;47.73;94132.09;4971209;28;20196;-67
2023/03/12 02:43:26;;;;;;;3.07;2.87;;;;;;;3.65;47.39;94127.88;4953998;28;20220;-66
2023/03/12 02:45:53;;;;;;;4.83;2.70;;;;;;;3.62;47.75;94125.53;4953626;28;20218;-67
2023/03/12 02:48:18;;;;;;;3.47;3.10;;;;;;;3.58;48.00;94108.56;4957792;28;20203;-67
2023/03/12 02:50:44;;;;;;;3.60;3.00;;;;;;;3.71;47.68;94115.16;4954526;28;20224;-66
2023/03/12 02:53:09;;;;;;;4.20;3.00;;;;;;;3.66;48.17;94113.91;4953745;28;20196;-66
2023/03/12 02:55:34;;;;;;;3.13;2.83;;;;;;;3.43;48.63;94111.53;4953529;28;20207;-66
2023/03/12 02:58:00;;;;;;;4.93;3.27;;;;;;;3.58;48.40;94105.97;4955232;28;20230;-65
2023/03/12 03:00:25;;;;;;;6.00;3.07;;;;;;;3.48;48.86;94105.94;4951705;28;20242;-65
2023/03/12 03:02:51;;;;;;;3.40;3.10;;;;;;;3.72;48.66;94111.63;4951537;28;20200;-64
2023/03/12 03:05:16;;;;;;;3.50;3.20;;;;;;;3.55;48.83;94107.03;4969176;28;20196;-65
2023/03/12 03:07:42;;;;;;;3.77;3.30;;;;;;;3.56;48.85;94098.31;4970689;28;20192;-65
2023/03/12 03:10:09;;;;;;;3.70;3.20;;;;;;;3.38;49.39;94090.31;4969246;28;20208;-65
2023/03/12 03:12:35;;;;;;;4.93;3.67;;;;;;;3.17;49.92;94111.13;4968827;28;20204;-65
2023/03/12 03:15:02;;;;;;;3.07;2.80;;;;;;;3.22;49.13;94105.56;4967376;28;20212;-65
2023/03/12 03:17:28;;;;;;;3.10;2.83;;;;;;;2.97;49.40;94109.41;4964794;28;20240;-65
2023/03/12 03:19:54;;;;;;;2.90;2.70;;;;;;;3.19;48.53;94108.41;4968411;28;20204;-65
2023/03/12 03:22:21;;;;;;;3.17;2.83;;;;;;;3.08;48.11;94114.50;4970865;28;20204;-65
2023/03/12 03:24:46;;;;;;;4.13;2.77;;;;;;;3.10;47.87;94125.56;4969782;28;20192;-65
2023/03/12 03:27:12;;;;;;;2.60;2.40;;;;;;;2.90;48.34;94129.84;4970796;28;20219;-67
2023/03/12 03:29:38;;;;;;;2.80;2.50;;;;;;;2.96;48.01;94131.09;4968969;28;20192;-67
2023/03/12 03:32:05;;;;;;;2.80;2.33;;;;;;;3.11;47.44;94116.84;4967175;28;20244;-66
2023/03/12 03:34:30;;;;;;;4.83;2.47;;;;;;;2.99;47.69;94125.66;4970693;28;20284;-66
2023/03/12 03:36:56;;;;;;;4.63;2.87;;;;;;;3.11;46.54;94123.81;4971369;28;20239;-67
2023/03/12 03:39:22;;;;;;;4.73;2.60;;;;;;;3.08;46.60;94123.13;4970527;28;20193;-67
2023/03/12 03:41:47;;;;;;;2.60;2.40;;;;;;;3.23;46.40;94122.78;4969621;28;20212;-67
2023/03/12 03:44:13;;;;;;;4.60;2.43;;;;;;;3.30;46.32;94134.31;4970421;28;20196;-66
2023/03/12 03:46:39;;;;;;;2.57;2.37;;;;;;;3.01;46.74;94132.38;4963181;28;20277;-66
2023/03/12 03:49:05;;;;;;;3.67;2.40;;;;;;;3.20;46.75;94141.22;4966142;28;20287;-67
2023/03/12 03:51:31;;;;;;;2.20;2.00;;;;;;;3.05;46.32;94138.97;4970492;28;20216;-66
2023/03/12 03:53:59;;;;;;;2.63;2.40;;;;;;;3.06;47.08;94137.19;4967713;28;20223;-66
2023/03/12 03:56:25;;;;;;;3.93;2.50;;;;;;;3.21;46.04;94132.50;4968558;28;20200;-65
2023/03/12 03:58:51;;;;;;;3.63;2.50;;;;;;;3.38;45.33;94144.06;4969143;28;20291;-66
2023/03/12 04:01:17;;;;;;;3.10;2.50;;;;;;;2.92;46.45;94142.72;4967426;28;20252;-66
2023/03/12 04:03:43;;;;;;;2.50;2.30;;;;;;;2.76;46.49;94143.16;4970845;28;20192;-67
2023/03/12 04:06:09;;;;;;;3.93;2.07;;;;;;;2.81;46.43;94152.19;4969137;28;20198;-69
2023/03/12 04:08:36;;;;;;;3.60;2.47;;;;;;;2.96;46.50;94162.25;4964193;28;20320;-70
2023/03/12 04:11:27;;;;;;;2.37;2.17;;;;;;;3.20;45.84;94185.38;4969866;28;20205;-70
2023/03/12 04:13:53;;;;;;;4.00;2.13;;;;;;;3.10;45.55;94172.31;4967093;28;20210;-70
2023/03/12 04:16:19;;;;;;;2.53;2.10;;;;;;;2.97;45.52;94174.31;4968952;28;20239;-70
2023/03/12 04:18:44;;;;;;;3.43;2.20;;;;;;;2.73;46.06;94185.75;4972168;28;20193;-69
2023/03/12 04:21:11;;;;;;;2.73;1.80;;;;;;;2.61;45.26;94179.78;4970461;28;20193;-69
2023/03/12 04:23:38;;;;;;;2.23;2.03;;;;;;;2.81;44.52;94192.94;4971263;28;20193;-69
2023/03/12 04:26:04;;;;;;;2.13;1.90;;;;;;;2.92;44.16;94200.66;4972175;28;20192;-67
2023/03/12 04:28:30;;;;;;;1.73;1.63;;;;;;;2.71;44.53;94202.41;4966152;28;20200;-67
2023/03/12 04:30:58;;;;;;;3.43;2.30;;;;;;;2.69;44.92;94210.31;4970001;28;20208;-67
2023/03/12 04:33:25;;;;;;;2.43;1.93;;;;;;;2.58;44.82;94211.16;4969929;28;20188;-66
2023/03/12 04:35:52;;;;;;;2.27;2.07;;;;;;;2.79;45.09;94215.59;4969275;28;20218;-66
2023/03/12 04:38:19;;;;;;;3.03;2.00;;;;;;;2.83;44.68;94219.56;4968014;28;20210;-66
2023/03/12 04:40:44;;;;;;;3.47;2.13;;;;;;;2.90;44.39;94207.75;4970199;28;20196;-66
2023/03/12 04:43:09;;;;;;;2.17;1.97;;;;;;;2.92;44.39;94221.44;4971474;28;20265;-66
2023/03/12 04:45:36;;;;;;;3.40;1.90;;;;;;;2.77;44.94;94227.84;4968404;28;20196;-67
2023/03/12 04:48:03;;;;;;;2.63;1.90;;;;;;;2.70;44.94;94226.69;4963194;28;20200;-67
2023/03/12 04:50:28;;;;;;;2.10;1.73;;;;;;;2.62;44.88;94227.34;4969662;28;20250;-67
2023/03/12 04:52:54;;;;;;;2.93;2.10;;;;;;;2.55;45.66;94219.19;4969219;28;20212;-67
2023/03/12 04:55:19;;;;;;;3.63;2.20;;;;;;;2.42;46.22;94228.91;4970838;28;20208;-67
2023/03/12 04:57:44;;;;;;;2.93;2.20;;;;;;;2.59;45.91;94236.19;4968110;28;20192;-67
2023/03/12 05:00:12;;;;;;;3.80;2.50;;;;;;;2.57;46.20;94242.44;4968678;28;20192;-66
2023/03/12 05:02:39;;;;;;;2.00;1.80;;;;;;;2.57;45.30;94243.28;4971264;28;20188;-66
2023/03/12 05:05:06;;;;;;;2.60;2.37;;;;;;;2.88;45.04;94270.16;4971006;28;20211;-68
2023/03/12 05:07:31;;;;;;;2.30;2.10;;;;;;;2.77;44.61;94261.59;4971115;28;20200;-67
2023/03/12 05:09:57;;;;;;;2.33;2.13;;;;;;;2.74;44.75;94275.66;4970551;28;20211;-67
2023/03/12 05:12:22;;;;;;;2.07;1.80;;;;;;;2.93;44.45;94267.22;4968344;28;20203;-68
2023/03/12 05:14:48;;;;;;;3.50;2.60;;;;;;;2.94;44.40;94279.25;4968283;28;20214;-68
2023/03/12 05:17:13;;;;;;;3.30;2.10;;;;;;;3.11;44.14;94261.50;4969003;28;20228;-67
2023/03/12 05:19:39;;;;;;;2.50;1.70;;;;;;;2.99;43.77;94265.88;4970587;28;20189;-67
2023/03/12 05:22:04;;;;;;;3.10;1.90;;;;;;;2.80;44.41;94282.13;4970773;28;20287;-66
2023/03/12 05:24:30;;;;;;;3.83;2.00;;;;;;;3.13;43.64;94285.53;4965358;28;20192;-67
2023/03/12 05:26:55;;;;;;;2.30;2.10;;;;;;;2.98;43.78;94288.44;4970159;28;20195;-67
2023/03/12 05:29:21;;;;;;;3.33;2.00;;;;;;;3.07;43.86;94287.72;4970460;28;20200;-68
2023/03/12 05:31:46;;;;;;;2.17;1.77;;;;;;;3.22;42.54;94284.81;4969064;28;20219;-65
2023/03/12 05:34:13;;;;;;;2.17;1.97;;;;;;;3.15;42.99;94296.63;4969055;28;20197;-66
2023/03/12 05:36:39;;;;;;;1.90;1.80;;;;;;;3.15;43.05;94296.63;4958479;28;20208;-65
2023/03/12 05:39:04;;;;;;;3.90;1.90;;;;;;;3.11;42.41;94303.03;4967002;28;20228;-66
2023/03/12 05:41:30;;;;;;;7.53;1.87;;;;;;;3.04;42.92;94297.50;4970209;28;20223;-66
2023/03/12 05:43:56;;;;;;;3.53;2.10;;;;;;;3.22;42.93;94305.59;4970401;28;20248;-70
2023/03/12 05:46:23;;;;;;;4.93;2.37;;;;;;;3.31;42.11;94295.28;4968300;28;20204;-65
2023/03/12 05:48:49;;;;;;;1.70;1.60;;;;;;;3.29;41.56;94298.97;4964927;28;20274;-64
2023/03/12 05:51:15;;;;;;;3.30;1.70;;;;;;;3.34;41.83;94307.16;4976216;28;20216;-65
2023/03/12 05:53:40;;;;;;;1.77;1.67;;;;;;;3.27;42.12;94312.06;4973533;28;20251;-65
2023/03/12 05:56:09;;;;;;;2.30;2.10;;;;;;;3.29;42.83;94317.97;4973784;28;20216;-63
2023/03/12 05:58:36;;;;;;;2.07;1.87;;;;;;;3.59;41.83;94316.41;4970535;28;20287;-65
2023/03/12 06:01:03;;;;;;;2.67;2.43;;;;;;;3.65;42.25;94325.47;4966084;28;20243;-63
2023/03/12 06:03:29;;;;;;;2.27;2.07;;;;;;;3.64;42.55;94331.63;4973032;28;20196;-64
2023/03/12 06:05:55;;;;;;;3.67;2.30;;;;;;;3.62;42.90;94338.72;4970090;28;20211;-65
2023/03/12 06:08:22;;;;;;;3.30;2.40;;;;;;;3.60;43.27;94338.84;4970149;28;20264;-64
2023/03/12 06:10:53;;;;;;;3.60;2.50;;;;;;;3.41;43.40;94339.50;4972810;28;20208;-64
2023/03/12 06:13:19;;;;;;;2.93;2.70;;;;;;;3.59;43.35;94350.19;4973303;28;20196;-65
2023/03/12 06:15:45;;;;;;;3.90;3.03;;;;;;;3.47;42.94;94338.19;4971299;28;20263;-65
2023/03/12 06:18:10;;;;;;;4.50;2.87;;;;;;;3.46;42.80;94350.38;4973193;28;20422;-65
2023/03/12 06:20:36;;;;;;;3.40;2.60;;;;;;;3.59;42.61;94351.97;4970492;28;20224;-65
2023/03/12 06:23:01;;;;;;;2.53;2.07;;;;;;;3.61;42.33;94363.06;4972534;28;20200;-65
2023/03/12 06:25:27;;;;;;;2.37;2.13;;;;;;;3.74;42.37;94351.53;4972987;28;20283;-65
2023/03/12 06:27:52;;;;;;;2.47;2.00;;;;;;;3.67;42.80;94354.78;4971089;28;20606;-64
2023/03/12 06:30:18;;;;;;;4.13;2.30;;;;;;;3.84;42.38;94366.38;4971175;28;20236;-66
2023/03/12 06:32:43;;;;;;;3.10;1.80;;;;;;;3.67;43.21;94367.78;4968164;28;20197;-66
2023/03/12 06:35:09;;;;;;;4.30;2.30;;;;;;;3.86;43.47;94373.09;4972581;28;20188;-67
2023/03/12 06:37:34;;;;;;;3.40;2.40;;;;;;;3.84;43.54;94379.38;4972847;28;20196;-64
2023/03/12 06:40:00;;;;;;;3.23;2.43;;;;;;;4.03;42.77;94379.50;4971535;28;20197;-65
2023/03/12 06:42:25;;;;;;;4.97;2.60;;;;;;;3.90;43.01;94377.09;4969030;28;20197;-63
2023/03/12 06:44:51;;;;;;;4.30;2.20;;;;;;;3.90;43.29;94377.09;4972075;28;20204;-63
2023/03/12 06:47:16;;;;;;;2.50;2.30;;;;;;;3.91;43.47;94388.31;4972092;28;20242;-66
2023/03/12 06:49:42;;;;;;;2.33;2.13;;;;;;;4.28;42.58;94385.28;4953932;28;20231;-63
2023/03/12 06:52:07;;;;;;;2.37;2.10;;;;;;;4.26;42.81;94385.38;4955462;28;20230;-66
2023/03/12 06:54:33;;;;;;;2.63;2.33;;;;;;;3.88;44.12;94383.38;4950582;28;20193;-65
2023/03/12 06:56:58;;;;;;;2.60;2.40;;;;;;;3.98;43.71;94397.25;4957250;28;20184;-66
2023/03/12 06:59:25;;;;;;;5.17;2.37;;;;;;;4.05;43.54;94408.00;4948727;28;20239;-66
2023/03/12 07:01:50;;;;;;;2.63;2.43;;;;;;;3.95;44.09;94403.53;4952966;28;20184;-66
2023/03/12 07:04:16;;;;;;;4.27;2.50;;;;;;;4.11;43.79;94402.28;4956867;28;20193;-65
2023/03/12 07:06:42;;;;;;;3.63;2.23;;;;;;;4.11;42.92;94397.88;4970042;28;20195;-64
2023/03/12 07:09:08;;;;;;;3.00;2.30;;;;;;;4.02;42.84;94396.06;4960755;28;20192;-64
2023/03/12 07:11:34;;;;;;;2.57;2.27;;;;;;;4.25;42.34;94408.91;4957369;28;20347;-64
2023/03/12 07:14:00;;;;;;;2.90;2.13;;;;;;;4.26;42.10;94419.22;4954580;28;20204;-64
2023/03/12 07:16:26;;;;;;;3.70;2.17;;;;;;;4.26;42.19;94414.00;4958942;28;20239;-64
2023/03/12 07:18:51;;;;;;;2.60;2.40;;;;;;;4.14;41.90;94420.22;4960072;28;20193;-65
2023/03/12 07:21:21;;;;;;;2.50;2.00;;;;;;;4.17;40.46;94419.97;4963492;28;20191;-64
2023/03/12 07:23:51;;;;;;;2.47;2.20;;;;;;;4.11;40.84;94431.72;4963739;28;20184;-64
2023/03/12 07:26:17;;;;;;;2.67;2.40;;;;;;;4.38;40.41;94439.03;4960424;28;20236;-64
2023/03/12 07:28:42;;;;;;;2.70;2.33;;;;;;;4.20;40.38;94441.38;4967432;28;20192;-64
2023/03/12 07:31:08;;;;;;;2.50;2.10;;;;;;;4.22;40.86;94433.41;4968011;28;20219;-64
2023/03/12 07:33:34;;;;;;;2.60;2.27;;;;;;;4.68;40.00;94452.16;4963781;28;20196;-65
2023/03/12 07:36:00;;;;;;;3.53;2.03;;;;;;;4.33;40.90;94442.94;4962609;28;20184;-64
2023/03/12 07:38:25;;;;;;;2.87;2.30;;;;;;;4.64;40.41;94439.41;4966148;28;20339;-64
2023/03/12 07:40:56;;;;;;;2.87;2.23;;;;;;;4.56;40.01;94454.84;4964839;28;20215;-64
2023/03/12 07:43:23;;;;;;;2.53;1.93;;;;;;;4.42;40.24;94450.81;4954221;28;20204;-64
2023/03/12 07:45:49;;;;;;;2.60;2.40;;;;;;;4.41;40.57;94453.53;4959228;28;20199;-64
2023/03/12 07:48:15;;;;;;;2.90;2.23;;;;;;;4.50;39.81;94455.38;4956146;28;84464;-64
2023/03/12 07:50:41;;;;;;;2.50;2.30;;;;;;;4.92;38.78;94450.09;4972557;28;20208;-64
2023/03/12 07:53:07;;;;;;;4.17;2.03;;;;;;;4.75;39.08;94451.53;4966133;28;20197;-64
2023/03/12 07:55:33;;;;;;;2.00;1.90;;;;;;;4.50;39.29;94467.56;4968011;28;20207;-64
2023/03/12 07:57:59;;;;;;;2.27;2.00;;;;;;;4.97;38.31;94460.97;4991212;28;20228;-64
2023/03/12 08:00:26;;;;;;;2.10;1.90;;;;;;;4.73;39.24;94463.03;4984745;28;20184;-64
2023/03/12 08:02:51;;;;;;;1.90;1.70;;;;;;;4.74;37.26;94455.09;4984512;28;20223;-64
2023/03/12 08:05:17;;;;;;;2.07;1.97;;;;;;;4.63;38.40;94470.81;4984414;28;20291;-65
2023/03/12 08:07:42;;;;;;;2.00;1.90;;;;;;;4.86;37.15;94474.91;4986002;28;20230;-62
2023/03/12 08:10:09;;;;;;;2.27;1.97;;;;;;;4.89;37.50;94465.16;4983887;28;20235;-64
2023/03/12 08:12:36;;;;;;;2.07;1.70;;;;;;;4.85;37.50;94488.88;5000499;28;20207;-64
2023/03/12 08:15:03;;;;;;;2.60;2.00;;;;;;;5.06;37.29;94488.81;4983651;28;20298;-64
2023/03/12 08:17:29;;;;;;;2.03;1.83;;;;;;;4.90;36.83;94492.88;4986047;28;20243;-63
2023/03/12 08:19:54;;;;;;;2.20;2.00;;;;;;;4.57;37.07;94494.72;4985379;28;20215;-63
2023/03/12 08:22:19;;;;;;;2.87;2.30;;;;;;;4.91;36.44;94515.34;4984225;28;20300;-63
2023/03/12 08:24:45;;;;;;;3.07;2.40;;;;;;;4.25;37.82;94510.41;4985725;28;20203;-64
2023/03/12 08:27:13;;;;;;;3.47;2.37;;;;;;;4.43;37.66;94499.31;4981709;28;20211;-65
2023/03/12 08:29:40;;;;;;;2.37;2.17;;;;;;;4.40;37.85;94507.38;4984823;28;20223;-63
2023/03/12 08:32:06;;;;;;;2.53;2.07;;;;;;;4.45;38.49;94506.19;4985648;28;20219;-63
2023/03/12 08:34:33;;;;;;;2.40;2.20;;;;;;;4.62;38.07;94509.03;4986232;28;20235;-64
2023/03/12 08:36:59;;;;;;;2.43;2.20;;;;;;;4.95;37.40;94528.00;4983631;28;20534;-64
2023/03/12 08:39:24;;;;;;;2.40;2.20;;;;;;;4.96;36.82;94532.25;4986758;28;20191;-63
2023/03/12 08:41:54;;;;;;;2.23;2.03;;;;;;;4.91;36.27;94521.38;4979418;28;20274;-63
2023/03/12 08:44:22;;;;;;;2.33;2.03;;;;;;;4.78;36.56;94516.38;4986181;28;20561;-64
2023/03/12 08:46:48;;;;;;;2.23;2.03;;;;;;;5.09;36.36;94538.06;4986868;28;20227;-65
2023/03/12 08:49:13;;;;;;;2.57;2.20;;;;;;;5.09;36.06;94534.66;4985863;28;20253;-65
2023/03/12 08:51:39;;;;;;;3.63;2.20;;;;;;;4.79;36.25;94527.66;4985034;28;20587;-65
2023/03/12 08:54:04;;;;;;;2.73;1.90;;;;;;;4.91;36.47;94526.59;4987024;28;20231;-65
2023/03/12 08:56:31;;;;;;;2.63;1.87;;;;;;;4.93;36.21;94531.69;4983780;28;20239;-65
2023/03/12 08:58:59;;;;;;;2.30;2.10;;;;;;;5.04;36.25;94534.19;4987496;28;20237;-65
2023/03/12 09:01:26;;;;;;;2.33;1.80;;;;;;;5.30;34.83;94547.63;4982832;28;20230;-65
2023/03/12 09:03:54;;;;;;;2.30;2.10;;;;;;;5.07;35.62;94541.75;4981036;28;20313;-63
2023/03/12 09:06:20;;;;;;;5.33;2.07;;;;;;;5.00;36.05;94554.50;4985769;28;20187;-64
2023/03/12 09:08:46;;;;;;;2.03;1.83;;;;;;;4.81;36.91;94538.72;4980906;28;20224;-64
2023/03/12 09:11:13;;;;;;;2.77;2.43;;;;;;;5.23;36.19;94536.06;4985442;28;20223;-64
2023/03/12 09:13:40;;;;;;;2.20;2.00;;;;;;;5.10;36.05;94544.09;4987085;28;20319;-64
2023/03/12 09:16:08;;;;;;;2.10;1.90;;;;;;;5.13;36.26;94533.41;4983631;28;20240;-64
2023/03/12 09:18:34;;;;;;;2.83;2.57;;;;;;;5.41;36.85;94544.09;4985895;28;20226;-64
2023/03/12 09:21:01;;;;;;;2.60;2.40;;;;;;;5.47;36.87;94544.38;4982840;28;20222;-64
2023/03/12 09:23:27;;;;;;;2.43;2.23;;;;;;;5.75;36.06;94537.63;4989833;28;20243;-64
2023/03/12 09:25:53;;;;;;;2.37;2.17;;;;;;;5.61;36.23;94527.53;4987865;28;20250;-65
2023/03/12 09:28:19;;;;;;;2.10;1.90;;;;;;;5.47;37.13;94523.53;4987507;28;20223;-65
2023/03/12 09:30:45;;;;;;;2.40;2.20;;;;;;;5.77;36.15;94536.66;4986788;28;20273;-65
2023/03/12 09:33:12;;;;;;;2.70;2.30;;;;;;;5.88;35.79;94552.16;4985978;28;20199;-66
2023/03/12 09:35:37;;;;;;;3.10;2.00;;;;;;;5.93;35.08;94545.66;4986341;28;20216;-65
2023/03/12 09:38:04;;;;;;;2.67;2.10;;;;;;;5.66;35.91;94537.56;4989713;28;20223;-65
2023/03/12 09:40:32;;;;;;;3.00;2.17;;;;;;;5.93;35.29;94531.72;4989878;28;20228;-64
2023/03/12 09:43:14;;;;;;;2.13;1.93;;;;;;;5.85;36.21;94529.78;4991293;28;20310;-65
2023/03/12 09:45:46;;;;;;;3.07;2.30;;;;;;;6.17;35.63;94531.38;4986140;28;20343;-65
2023/03/12 09:48:23;;;;;;;2.43;2.23;;;;;;;6.08;34.36;94532.19;4985322;28;20318;-66
2023/03/12 09:50:50;;;;;;;2.40;2.20;;;;;;;5.60;35.95;94541.56;4987051;28;20233;-65
2023/03/12 09:53:32;;;;;;;5.57;2.07;;;;;;;5.78;34.53;94535.69;4987989;28;20587;-64
2023/03/12 09:55:58;;;;;;;2.90;2.10;;;;;;;5.82;34.96;94537.06;4987723;28;20238;-66
2023/03/12 09:58:33;;;;;;;3.27;1.90;;;;;;;5.90;34.78;94530.22;4987453;28;20227;-66
2023/03/12 10:01:19;;;;;;;1.97;1.83;;;;;;;6.07;34.58;94526.16;4988813;28;20241;-65
2023/03/12 10:04:06;;;;;;;2.87;2.40;;;;;;;6.05;34.50;94529.88;4984075;28;20212;-66
2023/03/12 10:06:42;;;;;;;2.20;2.00;;;;;;;6.12;35.27;94521.34;4986298;28;20254;-64
2023/03/12 10:09:32;;;;;;;2.63;2.37;;;;;;;6.51;35.85;94518.72;4969549;28;20317;-65
2023/03/12 10:11:58;;;;;;;2.20;2.00;;;;;;;6.92;33.70;94521.94;4958723;28;20304;-65
2023/03/12 10:14:35;;;;;;;3.30;2.13;;;;;;;6.78;33.42;94525.00;4965760;28;20232;-64
2023/03/12 10:17:16;;;;;;;2.37;2.13;;;;;;;6.78;33.53;94514.56;4977426;28;20334;-64
2023/03/12 10:20:08;;;;;;;2.63;1.83;;;;;;;6.83;33.50;94518.38;4963534;28;20232;-63
2023/03/12 10:23:07;;;;;;;2.13;1.83;;;;;;;7.09;32.80;94502.09;4954150;28;20227;-65
2023/03/12 10:25:44;;;;;;;2.87;2.37;;;;;;;6.81;33.40;94509.84;4984506;28;20223;-64
2023/03/12 10:28:36;;;;;;;3.83;2.13;;;;;;;7.08;33.48;94516.09;4975418;28;20242;-65
2023/03/12 10:31:11;;;;;;;2.13;1.93;;;;;;;7.16;32.97;94508.38;4965776;28;20322;-65
2023/03/12 10:34:00;;;;;;;1.90;1.80;;;;;;;7.01;33.61;94509.81;4969027;28;20251;-63
2023/03/12 10:36:37;;;;;;;2.83;1.80;;;;;;;7.19;32.44;94513.34;4966500;28;20310;-64
2023/03/12 10:39:04;;;;;;;2.60;1.60;;;;;;;7.30;32.09;94520.19;4983757;28;20247;-65
2023/03/12 10:41:31;;;;;;;2.90;2.00;;;;;;;7.49;33.40;94530.56;4966792;28;20231;-67
2023/03/12 10:44:02;;;;;;;2.07;1.80;;;;;;;7.61;33.24;94522.50;4965626;28;20224;-66
2023/03/12 10:46:41;;;;;;;2.83;2.03;;;;;;;7.44;31.72;94529.34;4968801;28;20235;-65
2023/03/12 10:49:21;;;;;;;4.60;2.00;;;;;;;7.43;30.41;94532.91;4968217;28;20388;-65
2023/03/12 10:51:55;;;;;;;1.77;1.50;;;;;;;7.53;30.72;94519.78;4971729;28;20214;-65
2023/03/12 10:54:25;;;;;;;2.10;1.90;;;;;;;7.31;31.18;94519.19;4961717;28;20204;-66
2023/03/12 10:56:51;;;;;;;2.33;1.87;;;;;;;7.51;32.28;94506.84;4970781;28;20224;-66
2023/03/12 10:59:21;;;;;;;2.00;1.80;;;;;;;7.81;31.78;94518.81;4966935;28;20282;-67
2023/03/12 11:01:50;;;;;;;2.23;1.70;;;;;;;7.35;31.15;94519.72;4965833;28;20287;-63
2023/03/12 11:04:28;;;;;;;2.23;1.87;;;;;;;7.62;29.59;94509.28;4968803;28;20604;-63
2023/03/12 11:07:18;;;;;;;2.17;1.60;;;;;;;7.39;30.93;94516.69;4970305;28;20246;-62
2023/03/12 11:09:44;;;;;;;3.63;2.00;;;;;;;7.66;31.15;94505.41;4989019;28;20249;-66
2023/03/12 11:12:29;;;;;;;2.30;1.90;;;;;;;8.24;30.66;94501.56;4988580;28;20219;-62
2023/03/12 11:14:56;;;;;;;3.37;1.60;;;;;;;8.16;29.93;94502.31;5001403;28;20295;-62
2023/03/12 11:17:27;;;;;;;1.43;1.33;;;;;;;8.69;28.82;94503.28;4988915;28;20231;-62
2023/03/12 11:19:53;;;;;;;1.73;1.57;;;;;;;8.51;27.73;94499.88;4989218;28;20260;-61
2023/03/12 11:22:32;;;;;;;2.17;1.67;;;;;;;8.45;28.56;94500.47;4988357;28;20246;-60
2023/03/12 11:25:00;;;;;;;3.30;1.70;;;;;;;8.34;28.67;94493.63;4985351;28;20253;-66
2023/03/12 11:27:44;;;;;;;2.00;1.53;;;;;;;8.50;29.11;94501.66;4989255;28;20206;-66
2023/03/12 11:30:16;;;;;;;2.87;1.93;;;;;;;8.59;29.37;94502.53;4988425;28;20282;-67
2023/03/12 11:32:45;;;;;;;2.50;1.77;;;;;;;8.67;29.68;94497.38;4988842;28;20277;-68
2023/03/12 11:35:16;;;;;;;2.47;1.57;;;;;;;8.83;28.82;94494.84;4987525;28;20306;-67
2023/03/12 11:38:13;;;;;;;1.87;1.60;;;;;;;9.08;29.17;94494.19;4989171;28;20223;-69
2023/03/12 11:40:53;;;;;;;1.50;1.40;;;;;;;9.20;28.36;94496.38;4932495;28;20220;-61
2023/03/12 11:43:46;;;;;;;1.63;1.50;;;;;;;9.35;28.68;94495.78;4948366;29;20220;-62
2023/03/12 11:46:38;;;;;;;2.60;1.60;;;;;;;9.70;26.50;94489.53;4924602;29;20221;-62